Terminal Aerodrome Forecast
Issued by NWS Paducah, KY

Home | Current Version | Previous Version | Text Only | Print | Product List | Glossary On
Versions: 1 2 3 4 5 6 7 8 9 10 11 12 13 14
977
FTUS43 KPAH 191120
TAFEVV
TAF
KEVV 191120Z 1912/2012 31014G24KT P6SM SCT025 BKN035
      TEMPO 1915/1919 BKN025
     FM191900 35013G23KT P6SM BKN040
     FM192300 34008KT P6SM SCT040
     FM200200 VRB03KT P6SM SKC=

USA.gov is the U.S. government's official web portal to all federal, state and local government web resources and services.